KSFQ

Suffolk Executive Airport

Suffolk, Virginia, USA
METAR KSFQ 200515Z AUTO 00000KT 10SM CLR 24/23 A2987 RMK AO2 T02400225
Observed Flight Rules
Jun-20 @ 05:15 UTC (30 minutes ago) Visual Flight Rules
Visibility Clouds
10 miles
  • Clear skies
Temperatures Readings
Current 24°C / 75°F
Dewpoint 23°C / 73°F
Humidity 94%
Altimeter 29.87" Hg
Pressure 1012 hPa
Elevation 22
METAR KSFQ 200515Z AUTO 00000KT 10SM CLR 24/23 A2987 RMK AO2 T02400225
Observed Flight Rules
Jun-20 @ 05:15 UTC
(30 minutes ago)
VFR
Clouds
  • Clear skies
Temperature Dewpoint
24°C / 75°F 23°C / 73°F
Humidity Altimeter Pressure
94% 29.87" Hg 1012 hPa